Time;durP1;ratioP1;P1;durP2;ratioP2;P2;SDS_P1;SDS_P2;PMS_P1;PMS_P2;Temp;Humidity;BMP_temperature;BMP_pressure;BME280_temperature;BME280_humidity;BME280_pressure;Samples;Min_cycle;Max_cycle;Signal;HPM_P1;HPM_P2
2023/07/28 00:02:07;;;;;;;28.48;20.75;;;18.40;99.90;;;;;;4990495;28;20038;-87
2023/07/28 00:04:35;;;;;;;27.52;19.58;;;18.40;99.90;;;;;;4993411;28;20080;-86
2023/07/28 00:07:01;;;;;;;26.25;18.83;;;18.50;99.90;;;;;;4993113;28;20068;-87
2023/07/28 00:09:26;;;;;;;25.20;19.58;;;18.40;99.90;;;;;;4985260;28;20045;-86
2023/07/28 00:11:52;;;;;;;25.88;19.02;;;18.40;99.90;;;;;;4976805;28;20034;-86
2023/07/28 00:14:18;;;;;;;24.85;19.00;;;18.40;99.90;;;;;;4992977;28;20041;-86
2023/07/28 00:16:43;;;;;;;25.60;18.73;;;18.40;99.90;;;;;;4984947;28;20034;-86
2023/07/28 00:19:09;;;;;;;22.20;17.50;;;18.40;99.90;;;;;;4992922;28;20124;-87
2023/07/28 00:21:34;;;;;;;22.45;17.90;;;18.40;99.90;;;;;;4958682;28;20092;-86
2023/07/28 00:24:00;;;;;;;25.58;18.38;;;18.40;99.90;;;;;;4969990;28;20035;-86
2023/07/28 00:26:25;;;;;;;23.35;18.27;;;18.40;99.90;;;;;;4991703;28;20037;-86
2023/07/28 00:28:51;;;;;;;24.27;19.00;;;18.40;99.90;;;;;;4996149;28;20072;-86
2023/07/28 00:31:16;;;;;;;26.88;19.20;;;18.40;99.90;;;;;;4980016;28;20407;-87
2023/07/28 00:33:43;;;;;;;25.00;19.60;;;18.40;99.90;;;;;;4970041;28;20120;-85
2023/07/28 00:36:08;;;;;;;27.65;19.58;;;18.40;99.90;;;;;;4985710;28;20046;-86
2023/07/28 00:38:34;;;;;;;27.98;19.88;;;18.40;99.90;;;;;;4997480;28;20036;-86
2023/07/28 00:40:59;;;;;;;26.65;20.08;;;18.40;99.90;;;;;;4972800;28;20480;-86
2023/07/28 00:43:25;;;;;;;28.48;20.90;;;18.40;99.90;;;;;;4988668;28;20060;-86
2023/07/28 00:45:51;;;;;;;27.67;19.85;;;18.40;99.90;;;;;;4995472;28;20088;-86
2023/07/28 00:48:18;;;;;;;23.38;18.38;;;18.40;99.90;;;;;;4987740;28;20439;-86
2023/07/28 00:50:48;;;;;;;25.95;19.60;;;18.40;99.90;;;;;;5013178;28;20041;-86
2023/07/28 00:53:14;;;;;;;25.20;18.95;;;18.40;99.90;;;;;;4996091;28;20044;-86
2023/07/28 00:55:41;;;;;;;25.83;18.63;;;18.40;99.90;;;;;;4980511;28;20434;-86
2023/07/28 00:58:08;;;;;;;24.90;19.00;;;18.40;99.90;;;;;;4996561;28;20065;-86
2023/07/28 01:00:34;;;;;;;28.73;20.50;;;18.40;99.90;;;;;;4996483;28;20376;-87
2023/07/28 01:03:00;;;;;;;27.58;20.13;;;18.40;99.90;;;;;;4995658;28;20030;-86
2023/07/28 01:05:42;;;;;;;23.13;19.50;;;18.50;99.90;;;;;;4995446;28;20693;-86
2023/07/28 01:08:41;;;;;;;22.33;18.50;;;18.40;99.90;;;;;;4980053;28;20053;-86
2023/07/28 01:11:07;;;;;;;27.52;20.35;;;18.50;99.90;;;;;;4995904;28;20044;-86
2023/07/28 01:13:33;;;;;;;22.65;19.00;;;18.40;99.90;;;;;;4991773;28;20411;-86
2023/07/28 01:16:00;;;;;;;25.40;19.85;;;18.40;99.90;;;;;;4975480;28;20034;-86
2023/07/28 01:18:27;;;;;;;22.48;12.95;;;18.40;99.90;;;;;;4993174;28;20061;-85
2023/07/28 01:20:56;;;;;;;26.23;19.60;;;18.40;99.90;;;;;;4991422;28;20032;-85
2023/07/28 01:23:51;;;;;;;29.63;21.25;;;18.40;99.90;;;;;;4979615;28;20530;-85
2023/07/28 01:26:26;;;;;;;25.92;20.52;;;18.40;99.90;;;;;;5012827;28;20422;-85
2023/07/28 01:28:53;;;;;;;28.83;21.92;;;18.40;99.90;;;;;;5007544;28;20089;-85
2023/07/28 01:31:18;;;;;;;33.92;22.45;;;18.40;99.90;;;;;;4993627;28;20042;-86
2023/07/28 01:33:45;;;;;;;28.77;21.17;;;18.40;99.90;;;;;;4990529;28;20137;-86
2023/07/28 01:36:10;;;;;;;31.92;23.40;;;18.40;99.90;;;;;;4992602;28;20120;-87
2023/07/28 01:38:36;;;;;;;36.13;23.50;;;18.40;99.90;;;;;;4976819;28;20030;-87
2023/07/28 01:41:02;;;;;;;32.70;23.15;;;18.40;99.90;;;;;;4992888;28;20041;-87
2023/07/28 01:43:27;;;;;;;32.65;22.63;;;18.40;99.90;;;;;;4992565;28;20518;-86
2023/07/28 01:45:53;;;;;;;34.17;22.80;;;18.40;99.90;;;;;;4967692;28;20038;-87
2023/07/28 01:48:19;;;;;;;33.10;23.27;;;18.40;99.90;;;;;;4977984;28;20046;-87
2023/07/28 01:50:44;;;;;;;32.85;22.85;;;18.40;99.90;;;;;;4995507;28;20510;-87
2023/07/28 01:53:10;;;;;;;29.05;22.38;;;18.40;99.90;;;;;;4995217;28;20042;-87
2023/07/28 01:55:35;;;;;;;19.95;11.18;;;18.40;99.90;;;;;;4995627;28;20065;-87
2023/07/28 01:58:03;;;;;;;30.25;21.73;;;18.40;99.90;;;;;;5005500;28;20037;-87
2023/07/28 02:00:28;;;;;;;30.92;21.30;;;18.40;99.90;;;;;;4992260;28;20491;-87
2023/07/28 02:02:55;;;;;;;29.70;21.65;;;18.40;99.90;;;;;;4967639;28;20035;-87
2023/07/28 02:05:20;;;;;;;29.73;21.65;;;18.40;99.90;;;;;;4993568;28;20030;-87
2023/07/28 02:07:46;;;;;;;33.67;22.27;;;18.40;99.90;;;;;;4989438;28;20037;-87
2023/07/28 02:10:12;;;;;;;31.13;21.55;;;18.40;99.90;;;;;;4984610;28;20049;-87
2023/07/28 02:12:38;;;;;;;31.17;20.95;;;18.40;99.90;;;;;;4979078;28;20040;-87
2023/07/28 02:15:05;;;;;;;28.42;20.27;;;18.40;99.90;;;;;;4979147;28;20079;-87
2023/07/28 02:17:31;;;;;;;25.85;19.90;;;18.50;99.90;;;;;;4978633;28;20042;-87
2023/07/28 02:19:56;;;;;;;29.00;19.90;;;18.40;99.90;;;;;;4987247;28;20049;-87
2023/07/28 02:22:22;;;;;;;29.67;21.13;;;18.40;99.90;;;;;;4994637;28;20410;-87
2023/07/28 02:24:48;;;;;;;28.10;20.67;;;18.40;99.90;;;;;;4986459;28;20037;-87
2023/07/28 02:27:13;;;;;;;29.08;21.50;;;18.40;99.90;;;;;;4994287;28;20529;-86
2023/07/28 02:29:39;;;;;;;28.17;20.75;;;18.40;99.90;;;;;;4978921;28;20426;-87
2023/07/28 02:32:05;;;;;;;27.05;20.55;;;18.40;99.90;;;;;;4994683;28;20112;-87
2023/07/28 02:34:30;;;;;;;19.15;10.38;;;18.40;99.90;;;;;;4986846;28;20514;-86
2023/07/28 02:36:57;;;;;;;25.08;19.95;;;18.40;99.90;;;;;;4993660;28;20034;-86
2023/07/28 02:39:22;;;;;;;27.77;20.02;;;18.40;99.90;;;;;;4993839;28;20042;-85
2023/07/28 02:41:48;;;;;;;28.23;20.00;;;18.40;99.90;;;;;;4978008;28;20140;-86
2023/07/28 02:44:13;;;;;;;26.52;19.23;;;18.40;99.90;;;;;;4993473;28;20698;-85
2023/07/28 02:46:39;;;;;;;25.98;19.58;;;18.50;99.90;;;;;;4993240;28;20052;-86
2023/07/28 02:49:05;;;;;;;28.63;19.98;;;18.50;99.90;;;;;;4977349;28;20410;-86
2023/07/28 02:51:31;;;;;;;22.33;11.65;;;18.40;99.90;;;;;;4984519;28;20041;-85
2023/07/28 02:53:56;;;;;;;26.55;19.48;;;18.40;99.90;;;;;;4993411;28;20447;-86
2023/07/28 02:56:22;;;;;;;26.05;19.55;;;18.40;99.90;;;;;;4993597;28;20033;-86
2023/07/28 02:58:48;;;;;;;26.67;19.33;;;18.40;99.90;;;;;;4973111;28;20038;-86
2023/07/28 03:01:14;;;;;;;25.85;20.05;;;18.40;99.90;;;;;;4999956;28;20030;-86
2023/07/28 03:03:40;;;;;;;25.63;19.65;;;18.40;99.90;;;;;;5011712;28;20037;-86
2023/07/28 03:06:05;;;;;;;25.65;20.08;;;18.50;99.90;;;;;;4977567;28;20096;-86
2023/07/28 03:08:31;;;;;;;26.20;20.58;;;18.40;99.90;;;;;;4977031;28;20033;-86
2023/07/28 03:11:02;;;;;;;25.67;19.48;;;18.50;99.90;;;;;;4994038;28;20136;-87
2023/07/28 03:13:28;;;;;;;27.02;19.70;;;18.40;99.90;;;;;;4993842;28;20052;-86
2023/07/28 03:15:54;;;;;;;25.65;19.75;;;18.40;99.90;;;;;;4994086;28;20045;-87
2023/07/28 03:18:20;;;;;;;27.33;20.35;;;18.50;99.90;;;;;;4992253;28;20042;-86
2023/07/28 03:20:46;;;;;;;25.75;20.35;;;18.40;99.90;;;;;;4987422;28;20030;-86
2023/07/28 03:23:12;;;;;;;28.45;19.67;;;18.50;99.90;;;;;;4986043;28;20037;-86
2023/07/28 03:25:38;;;;;;;28.27;19.58;;;18.50;99.90;;;;;;4993930;28;20466;-86
2023/07/28 03:28:03;;;;;;;25.58;19.90;;;18.50;99.90;;;;;;5002846;28;20048;-86
2023/07/28 03:30:29;;;;;;;27.20;19.77;;;18.50;99.90;;;;;;4985663;28;20130;-86
2023/07/28 03:32:55;;;;;;;24.38;19.85;;;18.50;99.90;;;;;;4993737;28;20034;-86
2023/07/28 03:35:20;;;;;;;29.02;19.92;;;18.50;99.90;;;;;;4991889;28;20481;-86
2023/07/28 03:37:46;;;;;;;27.92;20.10;;;18.50;99.90;;;;;;4970774;28;20034;-86
2023/07/28 03:40:11;;;;;;;26.52;20.05;;;18.50;99.90;;;;;;4992775;28;20117;-86
2023/07/28 03:42:37;;;;;;;27.38;20.33;;;18.50;99.90;;;;;;4990850;28;20050;-86
2023/07/28 03:45:03;;;;;;;28.15;20.48;;;18.50;99.90;;;;;;4989478;28;20487;-86
2023/07/28 03:47:29;;;;;;;26.55;20.27;;;18.50;99.90;;;;;;4990372;28;20038;-86
2023/07/28 03:49:54;;;;;;;27.52;19.85;;;18.50;99.90;;;;;;4988188;28;20041;-87
2023/07/28 03:52:20;;;;;;;27.85;21.23;;;18.50;99.90;;;;;;4976273;28;20045;-86
2023/07/28 03:54:46;;;;;;;28.88;20.20;;;18.50;99.90;;;;;;4993651;28;20068;-87
2023/07/28 03:57:11;;;;;;;27.77;21.02;;;18.50;99.90;;;;;;4992843;28;20515;-87
2023/07/28 03:59:37;;;;;;;26.75;21.55;;;18.50;99.90;;;;;;4993477;28;20127;-86
2023/07/28 04:02:05;;;;;;;27.55;21.65;;;18.50;99.90;;;;;;4984696;28;20030;-86
2023/07/28 04:04:31;;;;;;;25.73;20.63;;;18.50;99.90;;;;;;4993149;28;20041;-85
2023/07/28 04:06:56;;;;;;;20.52;10.82;;;18.50;99.90;;;;;;4984591;28;20065;-86
2023/07/28 04:09:22;;;;;;;28.88;20.83;;;18.50;99.90;;;;;;4977255;28;20054;-86
2023/07/28 04:11:48;;;;;;;29.80;20.73;;;18.50;99.90;;;;;;4985022;28;20366;-87
2023/07/28 04:14:14;;;;;;;26.75;20.60;;;18.50;99.90;;;;;;4992129;28;20064;-87
2023/07/28 04:16:40;;;;;;;26.27;21.15;;;18.50;99.90;;;;;;5002122;28;20046;-87
2023/07/28 04:19:05;;;;;;;26.88;20.45;;;18.50;99.90;;;;;;4969653;28;20061;-87
2023/07/28 04:21:31;;;;;;;26.13;21.17;;;18.50;99.90;;;;;;4992456;28;20041;-87
2023/07/28 04:23:56;;;;;;;27.10;20.55;;;18.50;99.90;;;;;;4993314;28;20069;-87
2023/07/28 04:26:24;;;;;;;29.92;20.58;;;18.50;99.90;;;;;;4990919;28;20038;-87
2023/07/28 04:28:49;;;;;;;24.15;19.88;;;18.60;99.90;;;;;;4986635;28;20510;-86
2023/07/28 04:31:15;;;;;;;26.67;20.13;;;18.50;99.90;;;;;;4992500;28;20045;-86
2023/07/28 04:33:41;;;;;;;29.40;20.48;;;18.60;99.90;;;;;;4993252;28;20042;-86
2023/07/28 04:36:07;;;;;;;29.10;20.45;;;18.60;99.90;;;;;;4992799;28;20112;-86
2023/07/28 04:38:33;;;;;;;27.25;20.63;;;18.60;99.90;;;;;;4981662;28;20034;-86
2023/07/28 04:40:58;;;;;;;29.48;20.33;;;18.60;99.90;;;;;;4988376;28;20034;-87
2023/07/28 04:43:24;;;;;;;26.48;20.33;;;18.60;99.90;;;;;;4992948;28;20065;-86
2023/07/28 04:45:49;;;;;;;27.83;20.00;;;18.60;99.90;;;;;;4971576;28;20125;-87
2023/07/28 04:48:15;;;;;;;25.52;20.10;;;18.60;99.90;;;;;;4981654;28;20525;-86
2023/07/28 04:50:41;;;;;;;27.92;20.60;;;18.60;99.90;;;;;;4992486;28;20037;-86
2023/07/28 04:53:06;;;;;;;26.73;20.77;;;18.60;99.90;;;;;;4968565;28;20133;-87
2023/07/28 04:55:32;;;;;;;29.58;20.80;;;18.60;99.90;;;;;;4989599;28;20419;-87
2023/07/28 04:57:57;;;;;;;27.45;21.23;;;18.60;99.90;;;;;;4968774;28;20077;-86
2023/07/28 05:00:23;;;;;;;28.63;20.60;;;18.60;99.90;;;;;;4991902;28;20483;-86
2023/07/28 05:02:49;;;;;;;31.08;22.38;;;18.50;99.90;;;;;;4976604;28;20175;-86
2023/07/28 05:05:14;;;;;;;30.67;21.92;;;18.60;99.90;;;;;;4976352;28;20034;-87
2023/07/28 05:07:40;;;;;;;29.60;20.42;;;18.60;99.90;;;;;;4992162;28;20471;-86
2023/07/28 05:10:06;;;;;;;28.08;21.63;;;18.60;99.90;;;;;;4992895;28;20037;-86
2023/07/28 05:12:32;;;;;;;29.88;21.65;;;18.60;99.90;;;;;;4992431;28;20117;-86
2023/07/28 05:14:58;;;;;;;29.13;22.02;;;18.60;99.90;;;;;;4995810;28;20120;-86
2023/07/28 05:17:23;;;;;;;28.15;21.33;;;18.60;99.90;;;;;;4996011;28;20529;-86
2023/07/28 05:19:52;;;;;;;32.13;22.52;;;18.60;99.90;;;;;;4979798;28;20033;-86
2023/07/28 05:22:17;;;;;;;27.27;21.48;;;18.60;99.90;;;;;;4995729;28;20487;-86
2023/07/28 05:24:44;;;;;;;28.33;21.23;;;18.60;99.90;;;;;;4996235;28;20034;-86
2023/07/28 05:27:10;;;;;;;28.35;21.90;;;18.60;99.90;;;;;;4995901;28;20096;-86
2023/07/28 05:29:36;;;;;;;27.48;21.42;;;18.60;99.90;;;;;;4995904;28;20038;-86
2023/07/28 05:32:02;;;;;;;24.15;20.42;;;18.60;99.90;;;;;;4990833;28;20406;-86
2023/07/28 05:34:27;;;;;;;29.38;20.73;;;18.60;99.90;;;;;;4995258;28;20499;-86
2023/07/28 05:36:53;;;;;;;30.85;21.23;;;18.70;99.90;;;;;;4987635;28;20443;-86
2023/07/28 05:39:19;;;;;;;30.58;20.95;;;18.60;99.90;;;;;;4996103;28;20041;-86
2023/07/28 05:41:45;;;;;;;27.48;21.27;;;18.60;99.90;;;;;;4975264;28;20117;-86
2023/07/28 05:44:10;;;;;;;29.88;21.67;;;18.70;99.90;;;;;;4984634;28;20598;-86
2023/07/28 05:46:36;;;;;;;28.73;22.42;;;18.60;99.90;;;;;;4971507;28;20414;-86
2023/07/28 05:49:02;;;;;;;29.17;21.17;;;18.70;99.90;;;;;;4972122;28;20125;-87
2023/07/28 05:51:27;;;;;;;29.05;21.20;;;18.70;99.90;;;;;;4969990;28;20049;-86
2023/07/28 05:53:53;;;;;;;28.05;21.13;;;18.70;99.90;;;;;;4975943;28;20491;-87
2023/07/28 05:56:19;;;;;;;26.52;20.73;;;18.70;99.90;;;;;;4991991;28;20072;-86
2023/07/28 05:58:46;;;;;;;31.00;21.42;;;18.70;99.90;;;;;;4995210;28;20038;-86
2023/07/28 06:01:12;;;;;;;27.35;21.88;;;18.70;99.90;;;;;;4987288;28;20034;-86
2023/07/28 06:03:38;;;;;;;27.55;21.52;;;18.70;99.90;;;;;;4975546;28;20030;-86
2023/07/28 06:06:03;;;;;;;28.52;21.65;;;18.70;99.90;;;;;;4990653;28;20630;-86
2023/07/28 06:08:29;;;;;;;29.55;20.48;;;18.70;99.90;;;;;;4967773;28;20125;-86
2023/07/28 06:10:55;;;;;;;29.05;21.42;;;18.70;99.90;;;;;;4961888;28;20046;-87
2023/07/28 06:13:20;;;;;;;29.27;21.52;;;18.70;99.90;;;;;;4991952;28;20038;-86
2023/07/28 06:15:47;;;;;;;26.65;20.52;;;18.80;99.90;;;;;;4995214;28;20041;-85
2023/07/28 06:18:13;;;;;;;28.58;20.65;;;18.80;99.90;;;;;;4994252;28;20041;-86
2023/07/28 06:20:42;;;;;;;27.73;19.80;;;18.80;99.90;;;;;;4986312;28;20034;-86
2023/07/28 06:23:07;;;;;;;27.38;20.13;;;18.80;99.90;;;;;;4994221;28;20040;-85
2023/07/28 06:25:33;;;;;;;27.05;20.30;;;18.90;99.90;;;;;;4993278;28;20037;-86
2023/07/28 06:27:59;;;;;;;26.95;20.90;;;18.90;99.90;;;;;;4994413;28;20076;-86
2023/07/28 06:30:25;;;;;;;27.00;19.92;;;18.90;99.90;;;;;;4986615;28;20126;-86
2023/07/28 06:32:51;;;;;;;25.60;20.08;;;18.90;99.90;;;;;;4978435;28;20034;-86
2023/07/28 06:35:17;;;;;;;26.25;19.20;;;19.00;99.90;;;;;;4994046;28;20037;-86
2023/07/28 06:37:43;;;;;;;28.15;20.23;;;19.00;99.90;;;;;;4978544;28;20124;-86
2023/07/28 06:40:09;;;;;;;27.08;19.58;;;19.00;99.90;;;;;;4994892;28;20034;-86
2023/07/28 06:42:35;;;;;;;28.00;19.63;;;19.10;99.90;;;;;;4994960;28;20034;-86
2023/07/28 06:45:02;;;;;;;24.13;19.65;;;19.20;99.90;;;;;;4978777;28;20033;-86
2023/07/28 06:47:27;;;;;;;26.33;19.15;;;19.20;99.90;;;;;;4994581;28;20046;-86
2023/07/28 06:49:53;;;;;;;31.13;21.63;;;19.30;99.90;;;;;;4993619;28;20529;-86
2023/07/28 06:52:19;;;;;;;27.30;20.98;;;19.40;99.90;;;;;;4993319;28;20053;-86
2023/07/28 06:54:44;;;;;;;25.52;19.48;;;19.40;99.90;;;;;;4977475;28;20511;-86
2023/07/28 06:57:10;;;;;;;27.52;19.38;;;19.50;99.90;;;;;;4993659;28;20081;-86
2023/07/28 06:59:35;;;;;;;26.10;19.38;;;19.60;99.90;;;;;;4994316;28;20462;-86
2023/07/28 07:02:01;;;;;;;26.73;18.98;;;19.60;99.90;;;;;;4994658;28;20034;-87
2023/07/28 07:04:27;;;;;;;23.15;18.02;;;19.60;99.90;;;;;;4994203;28;20037;-86
2023/07/28 07:06:52;;;;;;;24.27;18.05;;;19.70;99.90;;;;;;4994263;28;20128;-87
2023/07/28 07:09:18;;;;;;;24.38;18.08;;;19.80;99.90;;;;;;4993620;28;20046;-86
2023/07/28 07:11:43;;;;;;;24.17;17.38;;;19.80;99.90;;;;;;4988953;28;20056;-88
2023/07/28 07:14:09;;;;;;;21.70;16.17;;;19.80;99.90;;;;;;4979928;28;20042;-87
2023/07/28 07:16:35;;;;;;;22.30;15.95;;;19.80;99.90;;;;;;4973951;28;20503;-86
2023/07/28 07:19:00;;;;;;;20.65;15.00;;;19.90;99.90;;;;;;4975018;28;20096;-86
2023/07/28 07:21:27;;;;;;;22.85;15.10;;;19.90;99.90;;;;;;4959139;28;20034;-87
2023/07/28 07:23:53;;;;;;;19.85;14.35;;;19.90;99.90;;;;;;4958912;28;20081;-87
2023/07/28 07:26:19;;;;;;;23.30;13.95;;;19.90;99.90;;;;;;4976717;28;20046;-86
2023/07/28 07:28:45;;;;;;;20.35;13.60;;;20.00;99.90;;;;;;4978175;28;20038;-86
2023/07/28 07:31:14;;;;;;;16.70;12.85;;;20.00;99.90;;;;;;4975235;28;20085;-87
2023/07/28 07:33:41;;;;;;;18.27;13.68;;;20.10;99.90;;;;;;4958180;28;20046;-86
2023/07/28 07:36:13;;;;;;;18.70;13.45;;;20.10;99.90;;;;;;4973873;28;20125;-86
2023/07/28 07:38:40;;;;;;;22.25;15.07;;;20.10;99.90;;;;;;4975011;28;20047;-87
2023/07/28 07:41:06;;;;;;;21.67;14.55;;;20.10;99.90;;;;;;4958857;28;20045;-87
2023/07/28 07:43:32;;;;;;;19.63;14.13;;;20.10;99.90;;;;;;4972708;28;20034;-83
2023/07/28 07:45:57;;;;;;;18.77;14.07;;;20.10;99.90;;;;;;4987709;28;20088;-87
2023/07/28 07:48:23;;;;;;;16.92;13.50;;;20.10;99.90;;;;;;4994663;28;20050;-86
2023/07/28 07:50:48;;;;;;;18.05;13.27;;;20.10;99.90;;;;;;4994407;28;20033;-86
2023/07/28 07:53:14;;;;;;;19.10;13.32;;;20.10;99.90;;;;;;4994669;28;20483;-86
2023/07/28 07:55:39;;;;;;;18.77;13.88;;;20.10;99.90;;;;;;4973614;28;20050;-87
2023/07/28 07:58:08;;;;;;;16.58;12.20;;;20.10;99.90;;;;;;4989058;28;20040;-86
2023/07/28 08:00:34;;;;;;;17.42;13.00;;;20.10;99.90;;;;;;4981039;28;20042;-86
2023/07/28 08:02:59;;;;;;;17.35;13.23;;;20.10;99.90;;;;;;4994241;28;20033;-86
2023/07/28 08:05:25;;;;;;;17.55;13.25;;;20.10;99.90;;;;;;4977809;28;20457;-87
2023/07/28 08:07:51;;;;;;;18.38;11.82;;;20.20;99.90;;;;;;4977047;28;20411;-86
2023/07/28 08:10:17;;;;;;;15.60;11.85;;;20.30;99.90;;;;;;4976953;28;20109;-86
2023/07/28 08:12:44;;;;;;;14.77;11.43;;;20.30;99.90;;;;;;4984672;28;20466;-86
2023/07/28 08:15:10;;;;;;;17.38;11.48;;;20.30;99.90;;;;;;4981524;28;20080;-86
2023/07/28 08:17:36;;;;;;;16.45;11.02;;;20.40;99.90;;;;;;4982936;28;20061;-87
2023/07/28 08:20:01;;;;;;;17.88;10.70;;;20.40;99.90;;;;;;4967267;28;20494;-87
2023/07/28 08:22:27;;;;;;;14.85;10.50;;;20.50;99.90;;;;;;4968259;28;20036;-87
2023/07/28 08:24:52;;;;;;;15.88;10.20;;;20.50;99.90;;;;;;4966316;28;20099;-87
2023/07/28 08:27:18;;;;;;;14.98;10.20;;;20.50;99.90;;;;;;4981000;28;20395;-86
2023/07/28 08:29:44;;;;;;;13.18;9.70;;;20.50;99.90;;;;;;4982033;28;20098;-86
2023/07/28 08:32:09;;;;;;;14.90;9.88;;;20.50;99.90;;;;;;4968178;28;20487;-87
2023/07/28 08:34:35;;;;;;;18.75;12.18;;;20.50;99.90;;;;;;4983057;28;20038;-87
2023/07/28 08:37:00;;;;;;;13.07;8.93;;;20.50;99.90;;;;;;4982389;28;20061;-86
2023/07/28 08:39:26;;;;;;;15.48;9.73;;;20.60;99.90;;;;;;4982600;28;20653;-86
2023/07/28 08:42:02;;;;;;;12.60;7.78;;;20.70;99.90;;;;;;4969224;28;20030;-87
2023/07/28 08:44:34;;;;;;;12.27;8.07;;;20.80;99.90;;;;;;4984202;28;20085;-86
2023/07/28 08:47:04;;;;;;;12.93;7.70;;;20.90;99.90;;;;;;4982751;28;20060;-87
2023/07/28 08:49:36;;;;;;;11.73;7.60;;;20.90;99.90;;;;;;4968559;28;20169;-87
2023/07/28 08:52:03;;;;;;;12.33;9.03;;;20.90;99.90;;;;;;4996305;28;20046;-87
2023/07/28 08:54:29;;;;;;;16.13;9.02;;;20.90;99.90;;;;;;4982940;28;20511;-87
2023/07/28 08:56:57;;;;;;;15.70;9.02;;;20.90;99.90;;;;;;4985443;28;20046;-86
2023/07/28 08:59:25;;;;;;;17.38;10.75;;;21.00;99.90;;;;;;4975035;28;20038;-87
2023/07/28 09:01:52;;;;;;;15.93;10.07;;;21.10;99.90;;;;;;4969502;28;20046;-87
2023/07/28 09:04:18;;;;;;;17.35;9.95;;;21.20;99.90;;;;;;4984502;28;20049;-88
2023/07/28 09:06:47;;;;;;;14.48;10.75;;;21.30;99.90;;;;;;4987605;28;20073;-87
2023/07/28 09:09:14;;;;;;;15.70;9.98;;;21.40;99.90;;;;;;4970169;28;20157;-87
2023/07/28 09:11:53;;;;;;;16.42;9.80;;;21.50;99.90;;;;;;4986008;28;20041;-87
2023/07/28 09:14:20;;;;;;;16.08;10.23;;;21.50;99.90;;;;;;4972999;28;20045;-87
2023/07/28 09:16:47;;;;;;;18.15;10.80;;;21.60;99.90;;;;;;4985175;28;20062;-87
2023/07/28 09:19:13;;;;;;;14.90;9.48;;;21.60;99.90;;;;;;4987644;28;20096;-86
2023/07/28 09:21:41;;;;;;;14.57;9.27;;;21.60;99.90;;;;;;4971195;28;20403;-87
2023/07/28 09:24:10;;;;;;;17.00;9.98;;;21.50;99.90;;;;;;4969699;28;20034;-86
2023/07/28 09:26:41;;;;;;;14.50;9.85;;;21.60;99.90;;;;;;4986073;28;20041;-87
2023/07/28 09:29:11;;;;;;;16.98;10.25;;;21.60;99.90;;;;;;4971151;28;20069;-86
2023/07/28 09:31:38;;;;;;;15.38;10.68;;;21.60;99.90;;;;;;4970342;28;20114;-87
2023/07/28 09:34:06;;;;;;;16.02;10.30;;;21.60;99.90;;;;;;4969070;28;20057;-87
2023/07/28 09:36:33;;;;;;;16.60;10.23;;;21.60;99.90;;;;;;5002847;28;20415;-87
2023/07/28 09:38:58;;;;;;;15.73;9.30;;;21.60;99.90;;;;;;4976484;28;20392;-86
2023/07/28 09:41:25;;;;;;;14.73;8.65;;;21.60;99.90;;;;;;4995661;28;20048;-86
2023/07/28 09:43:51;;;;;;;14.65;9.95;;;21.50;99.90;;;;;;4996449;28;20069;-87
2023/07/28 09:46:18;;;;;;;15.07;9.07;;;21.50;99.90;;;;;;4995009;28;20119;-86
2023/07/28 09:48:48;;;;;;;13.07;9.27;;;21.60;99.90;;;;;;4987106;28;20058;-86
2023/07/28 09:51:19;;;;;;;15.52;11.05;;;21.60;99.90;;;;;;4980105;28;20402;-86
2023/07/28 09:53:52;;;;;;;16.65;10.02;;;21.60;99.90;;;;;;4992307;28;20520;-87
2023/07/28 09:56:19;;;;;;;15.30;9.13;;;21.50;99.90;;;;;;4964750;28;20129;-87
2023/07/28 09:58:52;;;;;;;13.30;9.35;;;21.60;99.90;;;;;;4967925;28;20038;-87
2023/07/28 10:01:19;;;;;;;14.82;9.60;;;21.50;99.90;;;;;;4969634;28;20277;-87
2023/07/28 10:03:46;;;;;;;12.02;8.35;;;21.60;99.90;;;;;;4980248;28;20033;-86
2023/07/28 10:06:13;;;;;;;13.77;8.57;;;21.70;99.90;;;;;;4969111;28;20439;-87
2023/07/28 10:08:40;;;;;;;15.50;8.98;;;21.80;99.90;;;;;;4983926;28;20415;-87
2023/07/28 10:11:06;;;;;;;13.20;8.50;;;22.00;99.90;;;;;;4992522;28;20073;-87
2023/07/28 10:13:42;;;;;;;13.98;9.35;;;22.10;99.90;;;;;;4979461;28;20038;-87
2023/07/28 10:16:12;;;;;;;14.38;10.23;;;22.10;99.90;;;;;;4985903;28;20198;-86
2023/07/28 10:18:37;;;;;;;15.23;11.05;;;22.00;99.90;;;;;;4969016;28;20040;-87
2023/07/28 10:21:06;;;;;;;15.70;10.90;;;22.00;99.90;;;;;;4968943;28;20125;-86
2023/07/28 10:23:37;;;;;;;16.38;11.38;;;22.10;99.90;;;;;;4970188;28;20088;-86
2023/07/28 10:26:07;;;;;;;14.18;9.88;;;22.20;99.90;;;;;;4969716;28;20404;-86
2023/07/28 10:28:41;;;;;;;15.57;9.68;;;22.20;99.90;;;;;;4973117;28;20112;-86
2023/07/28 10:31:12;;;;;;;13.43;8.40;;;22.10;99.90;;;;;;4986074;28;20092;-86
2023/07/28 10:33:39;;;;;;;13.15;8.43;;;22.00;99.90;;;;;;4969391;28;20041;-87
2023/07/28 10:36:31;;;;;;;13.38;8.30;;;22.00;99.90;;;;;;4975542;28;20034;-86
2023/07/28 10:39:01;;;;;;;12.55;7.95;;;21.90;99.90;;;;;;4976115;28;20061;-87
2023/07/28 10:41:27;;;;;;;13.93;9.00;;;21.80;99.90;;;;;;4976298;28;20042;-87
2023/07/28 10:43:52;;;;;;;14.40;9.82;;;21.80;99.90;;;;;;4976251;28;20526;-87
2023/07/28 10:46:21;;;;;;;14.35;10.25;;;21.80;99.90;;;;;;4983455;28;20070;-87
2023/07/28 10:48:48;;;;;;;14.70;10.25;;;21.90;99.90;;;;;;4985489;28;20096;-87
2023/07/28 10:51:26;;;;;;;12.30;8.55;;;21.90;99.90;;;;;;4983473;28;20050;-87
2023/07/28 10:53:55;;;;;;;11.02;7.93;;;21.80;99.90;;;;;;4967927;28;20560;-87
2023/07/28 10:56:22;;;;;;;11.13;7.38;;;21.60;99.90;;;;;;4983416;28;20034;-87
2023/07/28 10:58:59;;;;;;;10.73;8.30;;;21.60;99.90;;;;;;4984331;28;20391;-87
2023/07/28 11:01:36;;;;;;;9.65;7.18;;;21.60;99.90;;;;;;4986056;28;20034;-87
2023/07/28 11:04:14;;;;;;;10.27;7.15;;;21.50;99.90;;;;;;4984460;28;20450;-86
2023/07/28 11:06:44;;;;;;;10.68;7.80;;;21.50;99.90;;;;;;4983301;28;20042;-86
2023/07/28 11:09:11;;;;;;;11.30;8.82;;;21.50;99.90;;;;;;4967687;28;20046;-87
2023/07/28 11:11:38;;;;;;;10.88;7.03;;;21.60;99.90;;;;;;4981691;28;20041;-87
2023/07/28 11:14:08;;;;;;;11.40;7.50;;;21.60;99.90;;;;;;4967647;28;20462;-86
2023/07/28 11:16:39;;;;;;;9.95;6.78;;;21.60;99.90;;;;;;4982413;28;20334;-87
2023/07/28 11:19:10;;;;;;;10.00;7.65;;;21.60;99.90;;;;;;4984860;28;20034;-87
2023/07/28 11:21:40;;;;;;;11.38;8.48;;;21.70;99.90;;;;;;4985590;28;20042;-87
2023/07/28 11:24:10;;;;;;;12.52;9.45;;;21.90;99.90;;;;;;4984641;28;20594;-87
2023/07/28 11:26:37;;;;;;;13.02;10.35;;;22.00;99.90;;;;;;4983104;28;20042;-86
2023/07/28 11:29:03;;;;;;;12.82;10.77;;;21.90;99.90;;;;;;4992570;28;20042;-87
2023/07/28 11:31:29;;;;;;;12.63;9.93;;;21.90;99.90;;;;;;5000911;28;20188;-87
2023/07/28 11:33:54;;;;;;;11.43;9.20;;;21.80;99.90;;;;;;4982827;28;20506;-86
2023/07/28 11:36:30;;;;;;;11.35;6.95;;;21.80;99.90;;;;;;4984200;28;20038;-87
2023/07/28 11:39:00;;;;;;;8.80;5.97;;;21.70;99.90;;;;;;4979739;28;20042;-87
2023/07/28 11:41:27;;;;;;;7.65;5.00;;;21.60;99.90;;;;;;4986005;28;20517;-86
2023/07/28 11:43:53;;;;;;;10.73;6.60;;;21.50;99.90;;;;;;4976343;28;20034;-86
2023/07/28 11:46:35;;;;;;;9.95;7.47;;;21.50;99.90;;;;;;4983721;28;20340;-87
2023/07/28 11:49:27;;;;;;;10.48;7.75;;;21.50;99.90;;;;;;4986179;28;20045;-87
2023/07/28 11:51:54;;;;;;;10.20;7.30;;;21.50;99.90;;;;;;4992746;28;20050;-86
2023/07/28 11:54:25;;;;;;;9.10;6.72;;;21.50;99.90;;;;;;4966189;28;20030;-85
2023/07/28 11:56:54;;;;;;;10.35;7.22;;;21.60;99.90;;;;;;4965545;28;20545;-87
2023/07/28 11:59:23;;;;;;;11.63;7.88;;;21.80;99.90;;;;;;5002966;28;20034;-87
2023/07/28 12:01:55;;;;;;;11.05;8.40;;;21.90;99.90;;;;;;4982776;28;20538;-87
2023/07/28 12:04:30;;;;;;;11.20;7.95;;;21.90;99.90;;;;;;4979555;28;20424;-87
2023/07/28 12:07:14;;;;;;;11.57;8.52;;;22.00;99.90;;;;;;4958134;28;20474;-86
2023/07/28 12:09:46;;;;;;;11.20;7.30;;;22.10;99.90;;;;;;4958378;28;20068;-87
2023/07/28 12:12:23;;;;;;;9.65;7.15;;;22.20;99.90;;;;;;4974258;28;20151;-86
2023/07/28 12:14:51;;;;;;;12.68;7.22;;;22.40;99.90;;;;;;4974099;28;20045;-87
2023/07/28 12:17:22;;;;;;;9.93;6.47;;;22.60;99.90;;;;;;4957458;28;20499;-87
2023/07/28 12:20:10;;;;;;;10.27;6.97;;;22.80;99.90;;;;;;4958004;28;20034;-87
2023/07/28 12:22:47;;;;;;;9.05;6.70;;;23.00;99.90;;;;;;4957851;28;20046;-87
2023/07/28 12:25:14;;;;;;;9.32;5.72;;;23.10;99.90;;;;;;4973524;28;20038;-87
2023/07/28 12:27:40;;;;;;;9.93;5.80;;;23.30;99.90;;;;;;4973487;28;20073;-87
2023/07/28 12:30:08;;;;;;;11.73;6.97;;;23.30;99.90;;;;;;4956954;28;20523;-87
2023/07/28 12:32:34;;;;;;;11.95;6.30;;;23.50;99.90;;;;;;4976532;28;20073;-87